Lindsey Foss — WCC9031 — position and weather

sailwx.info

Track history (hours):
 
Tides and Currents Weather Stations Pressure Air Temp Water Temp Dewpoint Dewpoint Depression Visibility Wind Speed Wind Dir Waves Ship Positions

Lindsey Foss

Owner: FOSS MARITIME CO, SEATTLE, WA. More information available from US FCC via Universal Licensing System and Coast Guard Vessel Documentation Center.

Last reported at 2018-Jun-22 11:28 UTC. Time now 2018-Jun-22 11:30 UTC.
Position N 47°38' W 122°23'.

Length 51 m; draft 7 m.

Type: Tug. MMSI: 366767150.

Date/timePositionNaut miles runAvg speedWind from/ knotsBaromVisibWave heightAir tempDewpointWater temp
2018-Jun-22 11:28N 47°38' W 122°23'0 0.0
2018-Jun-22 10:58N 47°38' W 122°23'0 0.0
2018-Jun-22 10:28N 47°38' W 122°23'0 0.0
2018-Jun-22 09:58N 47°38' W 122°23'0 0.0
2018-Jun-22 09:28N 47°38' W 122°23'0 0.0
2018-Jun-22 08:58N 47°38' W 122°23'0 0.0
2018-Jun-22 08:28N 47°38' W 122°23'0 0.0
2018-Jun-22 07:58N 47°38' W 122°23'0 0.0
2018-Jun-22 07:28N 47°38' W 122°23'0 0.0
2018-Jun-22 06:58N 47°38' W 122°23'0 0.0
2018-Jun-22 06:28N 47°38' W 122°23'0 0.0
2018-Jun-22 05:58N 47°38' W 122°23'0 0.0
2018-Jun-22 05:28N 47°38' W 122°23'0 0.0
2018-Jun-22 04:58N 47°38' W 122°23'0 0.0
2018-Jun-22 04:28N 47°38' W 122°23'0 0.0
2018-Jun-22 03:58N 47°38' W 122°23'0 0.0
2018-Jun-22 03:31N 47°38' W 122°23'1 1.1
2018-Jun-22 03:01N 47°37' W 122°22'1 1.5
2018-Jun-22 02:30N 47°37' W 122°23'3 5.7
2018-Jun-22 02:01N 47°35' W 122°21'0 0.8
2018-Jun-22 01:31N 47°35' W 122°21'3 5.6
2018-Jun-22 01:00N 47°37' W 122°22'0 0.0
2018-Jun-22 00:31N 47°37' W 122°22'0 0.1
2018-Jun-22 00:00N 47°37' W 122°22'1 1.2
2018-Jun-21 23:31N 47°38' W 122°23'0 0.0
2018-Jun-21 23:00N 47°38' W 122°23'0 0.5
2018-Jun-21 22:30N 47°38' W 122°23'4 8.9
2018-Jun-21 22:00N 47°40' W 122°28'612.1
2018-Jun-21 21:31N 47°46' W 122°27'612.3
2018-Jun-21 21:00N 47°52' W 122°29'611.4
2018-Jun-21 20:30N 47°57' W 122°34'712.3
2018-Jun-21 19:56N 48°03' W 122°39'2212.0
2018-Jun-21 18:04N 48°25' W 122°45'113.0
2018-Jun-21 17:59N 48°26' W 122°45'612.4
2018-Jun-21 17:31N 48°32' W 122°45'612.0
2018-Jun-21 16:59N 48°38' W 122°44'10 0.6
2018-Jun-20 23:08N 48°49' W 122°43'0 0.0
2018-Jun-20 22:58N 48°49' W 122°43'0 0.0
2018-Jun-20 22:29N 48°49' W 122°43'0 0.0
2018-Jun-20 21:57N 48°49' W 122°43'4 1.4
2018-Jun-20 19:11N 48°45' W 122°46'2 9.9
2018-Jun-20 18:59N 48°43' W 122°45'510.5
2018-Jun-20 18:30N 48°38' W 122°44'511.0
2018-Jun-20 18:00N 48°33' W 122°45'510.6
2018-Jun-20 17:31N 48°28' W 122°45'5 9.1
2018-Jun-20 17:00N 48°24' W 122°48'713.4
2018-Jun-20 16:29N 48°20' W 122°57'11 1.3
2018-Jun-20 08:05N 48°11' W 123°07'110.7
2018-Jun-20 07:59N 48°11' W 123°05'610.7
2018-Jun-20 07:23N 48°17' W 123°06'512.5
2018-Jun-20 07:00N 48°20' W 122°60'612.6
2018-Jun-20 06:30N 48°23' W 122°52'611.3
2018-Jun-20 06:00N 48°27' W 122°45'5 9.0
2018-Jun-20 05:30N 48°31' W 122°44'4 8.1
2018-Jun-20 05:00N 48°35' W 122°45'4 7.6
2018-Jun-20 04:30N 48°39' W 122°43'4 7.5
2018-Jun-20 03:59N 48°43' W 122°45'6 3.9
2018-Jun-20 02:21N 48°49' W 122°43'0 0.5
2018-Jun-20 01:59N 48°49' W 122°43'0 0.0
2018-Jun-19 17:14N 48°49' W 122°43'0 0.1
2018-Jun-19 16:50N 48°49' W 122°43'0 0.0
2018-Jun-19 14:47N 48°49' W 122°43'0 0.0
2018-Jun-19 08:31N 48°49' W 122°43'0 0.0
2018-Jun-19 08:30N 48°49' W 122°43'0 0.3
2018-Jun-19 07:11N 48°49' W 122°44'1 4.0
2018-Jun-19 07:00N 48°48' W 122°44'4 8.5
2018-Jun-19 06:30N 48°44' W 122°45'510.0
2018-Jun-19 06:00N 48°39' W 122°44'510.9
2018-Jun-19 05:30N 48°34' W 122°45'611.9
2018-Jun-19 05:00N 48°28' W 122°45'713.3
2018-Jun-19 04:29N 48°22' W 122°52'814.0
2018-Jun-19 03:57N 48°18' W 123°01'4 0.2
2018-Jun-18 06:07N 48°21' W 122°57'110.2
2018-Jun-18 06:00N 48°21' W 122°56'5 9.8
2018-Jun-18 05:30N 48°24' W 122°50'5 9.5
2018-Jun-18 05:01N 48°28' W 122°45'4 8.1
2018-Jun-18 04:31N 48°32' W 122°45'4 7.2
2018-Jun-18 04:00N 48°35' W 122°45'3 5.6
2018-Jun-18 03:31N 48°38' W 122°44'3 6.3
2018-Jun-18 03:00N 48°41' W 122°44'6 7.9
2018-Jun-18 02:16N 48°47' W 122°45'3 0.1
2018-Jun-17 00:50N 48°44' W 122°44'2 6.2
2018-Jun-17 00:27N 48°42' W 122°43'4 9.2
2018-Jun-17 00:01N 48°39' W 122°38'4 8.0
2018-Jun-16 23:30N 48°41' W 122°33'1 0.1
2018-Jun-16 05:54N 48°42' W 122°33'410.3
2018-Jun-16 05:30N 48°38' W 122°34'5 9.9
2018-Jun-16 05:00N 48°33' W 122°34'3 5.5
2018-Jun-16 04:30N 48°30' W 122°34'0 0.3
2018-Jun-16 04:00N 48°31' W 122°35'1 2.8
2018-Jun-16 03:30N 48°32' W 122°36'3 7.0
2018-Jun-16 03:00N 48°31' W 122°41'3 6.2
2018-Jun-16 02:30N 48°29' W 122°45'4 7.4
2018-Jun-16 01:55N 48°25' W 122°47'511.3
2018-Jun-16 01:30N 48°22' W 122°53'813.5
2018-Jun-16 00:55N 48°18' W 123°03'27 3.5
2018-Jun-15 17:07N 47°58' W 122°34'213.8
2018-Jun-15 17:00N 47°57' W 122°32'612.0
2018-Jun-15 16:30N 47°52' W 122°28'611.4
2018-Jun-15 16:00N 47°47' W 122°26'611.1
2018-Jun-15 15:30N 47°41' W 122°27'4 8.6
2018-Jun-15 15:00N 47°38' W 122°23'0 0.6
2018-Jun-15 14:31N 47°38' W 122°23'0 0.0
2018-Jun-15 14:00N 47°38' W 122°23'0 0.0
2018-Jun-15 13:31N 47°38' W 122°23'1 2.8
2018-Jun-15 13:00N 47°37' W 122°22'2 3.7
2018-Jun-15 12:31N 47°35' W 122°21'0 0.5
2018-Jun-15 12:00N 47°35' W 122°21'3 6.0
2018-Jun-15 11:30N 47°38' W 122°23'0 0.0
2018-Jun-15 10:59N 47°38' W 122°23'0 0.0
2018-Jun-15 10:29N 47°38' W 122°23'0 0.0
2018-Jun-15 09:59N 47°38' W 122°23'0 0.0
2018-Jun-15 09:29N 47°38' W 122°23'0 0.0
2018-Jun-15 08:59N 47°38' W 122°23'0 0.0
2018-Jun-15 08:29N 47°38' W 122°23'0 0.0
2018-Jun-15 07:59N 47°38' W 122°23'0 0.0
2018-Jun-15 07:29N 47°38' W 122°23'0 0.0
2018-Jun-15 06:59N 47°38' W 122°23'0 0.0
2018-Jun-15 06:29N 47°38' W 122°23'0 0.0
2018-Jun-15 05:59N 47°38' W 122°23'0 0.0
2018-Jun-15 05:29N 47°38' W 122°23'0 0.0
2018-Jun-15 04:59N 47°38' W 122°23'0 0.0
2018-Jun-15 04:29N 47°38' W 122°23'0 0.0
2018-Jun-15 04:00N 47°38' W 122°23'4 7.3
2018-Jun-15 03:30N 47°34' W 122°21'2 3.3
2018-Jun-15 03:01N 47°33' W 122°20'0 0.3
2018-Jun-15 02:30N 47°33' W 122°20'1 1.8
2018-Jun-15 02:00N 47°34' W 122°21'1 1.2
2018-Jun-15 01:30N 47°34' W 122°21'1 1.8
2018-Jun-15 01:01N 47°35' W 122°22'1 1.3
2018-Jun-15 00:30N 47°36' W 122°21'0 0.3
2018-Jun-15 00:00N 47°36' W 122°21'1 2.3
2018-Jun-14 23:30N 47°35' W 122°22'1 1.5
2018-Jun-14 23:00N 47°35' W 122°21'0 0.0
2018-Jun-14 22:30N 47°35' W 122°21'0 0.0
2018-Jun-14 22:00N 47°35' W 122°21'0 0.0
2018-Jun-14 21:30N 47°35' W 122°21'0 0.0
2018-Jun-14 21:00N 47°35' W 122°21'0 0.0
2018-Jun-14 20:30N 47°35' W 122°21'0 0.0
2018-Jun-14 20:00N 47°35' W 122°21'0 0.0
2018-Jun-14 19:30N 47°35' W 122°21'3 5.3
2018-Jun-14 19:00N 47°38' W 122°23'0 0.3
2018-Jun-14 18:30N 47°38' W 122°23'0 0.0
2018-Jun-14 18:00N 47°38' W 122°23'0 0.0
2018-Jun-14 17:30N 47°38' W 122°23'0 0.0
2018-Jun-14 17:00N 47°38' W 122°23'0 0.0
2018-Jun-14 16:30N 47°38' W 122°23'0 0.0
2018-Jun-14 16:00N 47°38' W 122°23'0 0.0
2018-Jun-14 15:30N 47°38' W 122°23'0 0.0
2018-Jun-14 15:00N 47°38' W 122°23'0 0.0
2018-Jun-14 14:30N 47°38' W 122°23'0 0.0
2018-Jun-14 14:00N 47°38' W 122°23'0 0.0
2018-Jun-14 13:30N 47°38' W 122°23'0 1.0
2018-Jun-14 13:00N 47°37' W 122°23'3 5.7
2018-Jun-14 12:30N 47°35' W 122°21'1 1.2
2018-Jun-14 12:01N 47°36' W 122°21'0 0.6
2018-Jun-14 11:30N 47°36' W 122°21'0 0.7
2018-Jun-14 11:00N 47°36' W 122°21'0 0.1
2018-Jun-14 10:30N 47°36' W 122°21'0 0.9
2018-Jun-14 10:00N 47°36' W 122°21'1 1.2
2018-Jun-14 09:30N 47°36' W 122°22'2 3.9
2018-Jun-14 09:00N 47°38' W 122°23'0 0.0
2018-Jun-14 08:30N 47°38' W 122°23'0 0.0
2018-Jun-14 08:00N 47°38' W 122°23'0 0.0
2018-Jun-14 07:30N 47°38' W 122°23'0 0.0
2018-Jun-14 07:00N 47°38' W 122°23'0 0.0
2018-Jun-14 06:30N 47°38' W 122°23'0 0.7
2018-Jun-14 06:01N 47°38' W 122°23'5 9.4
2018-Jun-14 05:30N 47°41' W 122°28'510.9
2018-Jun-14 05:00N 47°46' W 122°27'611.3
2018-Jun-14 04:30N 47°52' W 122°29'510.0
2018-Jun-14 04:00N 47°56' W 122°33'5 9.9
2018-Jun-14 03:28N 48°00' W 122°38'2310.1
2018-Jun-14 01:10N 48°23' W 122°45'210.9
2018-Jun-14 01:00N 48°25' W 122°45'510.4
2018-Jun-14 00:30N 48°30' W 122°43'4 8.4
2018-Jun-14 00:00N 48°31' W 122°37'2 3.7
2018-Jun-13 23:30N 48°31' W 122°35'0 0.6
2018-Jun-13 23:00N 48°31' W 122°35'0 0.9
2018-Jun-13 22:30N 48°31' W 122°36'0 0.0
2018-Jun-13 22:00N 48°31' W 122°36'0 0.0
2018-Jun-13 21:30N 48°31' W 122°36'0 0.1
2018-Jun-13 21:00N 48°31' W 122°36'1 1.3
2018-Jun-13 20:30N 48°31' W 122°35'1 1.2
2018-Jun-13 20:00N 48°31' W 122°36'0 0.0
2018-Jun-13 19:30N 48°31' W 122°36'0 0.0
2018-Jun-13 19:00N 48°31' W 122°36'0 0.0
2018-Jun-13 18:30N 48°31' W 122°36'0 0.0
2018-Jun-13 18:00N 48°31' W 122°36'0 0.0
2018-Jun-13 17:29N 48°31' W 122°36'0 0.0
2018-Jun-13 17:00N 48°31' W 122°36'0 0.0
2018-Jun-13 16:30N 48°31' W 122°36'0 0.1
2018-Jun-13 16:00N 48°31' W 122°36'0 0.0
2018-Jun-13 15:31N 48°31' W 122°36'0 0.1
2018-Jun-13 15:00N 48°31' W 122°36'0 0.1
2018-Jun-13 14:30N 48°31' W 122°36'0 0.0
2018-Jun-13 14:00N 48°31' W 122°36'0 0.0
2018-Jun-13 13:30N 48°31' W 122°36'0 0.1
2018-Jun-13 13:00N 48°31' W 122°36'0 0.0
2018-Jun-13 12:30N 48°31' W 122°36'0 0.0
2018-Jun-13 12:00N 48°31' W 122°36'0 0.0
2018-Jun-13 11:30N 48°31' W 122°36'0 0.0
2018-Jun-13 11:00N 48°31' W 122°36'0 0.0
2018-Jun-13 10:30N 48°31' W 122°36'0 0.0
2018-Jun-13 10:00N 48°31' W 122°36'0 0.0
2018-Jun-13 09:30N 48°31' W 122°36'0 0.0
2018-Jun-13 09:00N 48°31' W 122°36'0 0.0
2018-Jun-13 08:30N 48°31' W 122°36'0 0.0
2018-Jun-13 07:59N 48°31' W 122°36'0 0.0
2018-Jun-13 07:30N 48°31' W 122°36'0 0.0
2018-Jun-13 07:00N 48°31' W 122°36'0 0.0
2018-Jun-13 06:30N 48°31' W 122°36'0 0.0
2018-Jun-13 06:00N 48°31' W 122°36'0 0.0
2018-Jun-13 05:29N 48°31' W 122°36'0 0.0
2018-Jun-13 05:00N 48°31' W 122°36'4 7.4
2018-Jun-13 04:30N 48°35' W 122°36'510.3
2018-Jun-13 04:00N 48°39' W 122°39'510.4
2018-Jun-13 03:30N 48°43' W 122°44'8 3.5
2018-Jun-13 01:20N 48°51' W 122°46'4 9.3
2018-Jun-13 00:57N 48°47' W 122°45'5 8.9
2018-Jun-13 00:25N 48°43' W 122°43'4 9.7
2018-Jun-13 00:00N 48°40' W 122°40'4 7.9
2018-Jun-12 23:30N 48°39' W 122°34'510.2
2018-Jun-12 23:00N 48°44' W 122°31'1 1.0
2018-Jun-12 22:11N 48°45' W 122°30'0 0.0
2018-Jun-12 21:53N 48°45' W 122°30'0 0.0
2018-Jun-12 17:29N 48°45' W 122°30'0 0.0
2018-Jun-12 15:47N 48°45' W 122°30'0 0.0
2018-Jun-12 14:24N 48°45' W 122°30'0 0.0
2018-Jun-12 13:53N 48°45' W 122°30'0 0.0
2018-Jun-12 13:27N 48°45' W 122°30'  
Track history (hours):
 
Tides and Currents Weather Stations Pressure Air Temp Water Temp Dewpoint Dewpoint Depression Visibility Wind Speed Wind Dir Waves Ship Positions

Lindsey Foss

Owner: FOSS MARITIME CO, SEATTLE, WA. More information available from US FCC via Universal Licensing System and Coast Guard Vessel Documentation Center.

Last reported at 2018-Jun-22 11:28 UTC. Time now 2018-Jun-22 11:30 UTC.
Position N 47°38' W 122°23'.

Length 51 m; draft 7 m.

Type: Tug. MMSI: 366767150.

Date/timePositionNaut miles runAvg speedWind from/ knotsBaromVisibWave heightAir tempDewpointWater temp
2018-Jun-22 11:28N 47°38' W 122°23'0 0.0
2018-Jun-22 10:58N 47°38' W 122°23'0 0.0
2018-Jun-22 10:28N 47°38' W 122°23'0 0.0
2018-Jun-22 09:58N 47°38' W 122°23'0 0.0
2018-Jun-22 09:28N 47°38' W 122°23'0 0.0
2018-Jun-22 08:58N 47°38' W 122°23'0 0.0
2018-Jun-22 08:28N 47°38' W 122°23'0 0.0
2018-Jun-22 07:58N 47°38' W 122°23'0 0.0
2018-Jun-22 07:28N 47°38' W 122°23'0 0.0
2018-Jun-22 06:58N 47°38' W 122°23'0 0.0
2018-Jun-22 06:28N 47°38' W 122°23'0 0.0
2018-Jun-22 05:58N 47°38' W 122°23'0 0.0
2018-Jun-22 05:28N 47°38' W 122°23'0 0.0
2018-Jun-22 04:58N 47°38' W 122°23'0 0.0
2018-Jun-22 04:28N 47°38' W 122°23'0 0.0
2018-Jun-22 03:58N 47°38' W 122°23'0 0.0
2018-Jun-22 03:31N 47°38' W 122°23'1 1.1
2018-Jun-22 03:01N 47°37' W 122°22'1 1.5
2018-Jun-22 02:30N 47°37' W 122°23'3 5.7
2018-Jun-22 02:01N 47°35' W 122°21'0 0.8
2018-Jun-22 01:31N 47°35' W 122°21'3 5.6
2018-Jun-22 01:00N 47°37' W 122°22'0 0.0
2018-Jun-22 00:31N 47°37' W 122°22'0 0.1
2018-Jun-22 00:00N 47°37' W 122°22'1 1.2
2018-Jun-21 23:31N 47°38' W 122°23'0 0.0
2018-Jun-21 23:00N 47°38' W 122°23'0 0.5
2018-Jun-21 22:30N 47°38' W 122°23'4 8.9
2018-Jun-21 22:00N 47°40' W 122°28'612.1
2018-Jun-21 21:31N 47°46' W 122°27'612.3
2018-Jun-21 21:00N 47°52' W 122°29'611.4
2018-Jun-21 20:30N 47°57' W 122°34'712.3
2018-Jun-21 19:56N 48°03' W 122°39'2212.0
2018-Jun-21 18:04N 48°25' W 122°45'113.0
2018-Jun-21 17:59N 48°26' W 122°45'612.4
2018-Jun-21 17:31N 48°32' W 122°45'612.0
2018-Jun-21 16:59N 48°38' W 122°44'10 0.6
2018-Jun-20 23:08N 48°49' W 122°43'0 0.0
2018-Jun-20 22:58N 48°49' W 122°43'0 0.0
2018-Jun-20 22:29N 48°49' W 122°43'0 0.0
2018-Jun-20 21:57N 48°49' W 122°43'4 1.4
2018-Jun-20 19:11N 48°45' W 122°46'2 9.9
2018-Jun-20 18:59N 48°43' W 122°45'510.5
2018-Jun-20 18:30N 48°38' W 122°44'511.0
2018-Jun-20 18:00N 48°33' W 122°45'510.6
2018-Jun-20 17:31N 48°28' W 122°45'5 9.1
2018-Jun-20 17:00N 48°24' W 122°48'713.4
2018-Jun-20 16:29N 48°20' W 122°57'11 1.3
2018-Jun-20 08:05N 48°11' W 123°07'110.7
2018-Jun-20 07:59N 48°11' W 123°05'610.7
2018-Jun-20 07:23N 48°17' W 123°06'512.5
2018-Jun-20 07:00N 48°20' W 122°60'612.6
2018-Jun-20 06:30N 48°23' W 122°52'611.3
2018-Jun-20 06:00N 48°27' W 122°45'5 9.0
2018-Jun-20 05:30N 48°31' W 122°44'4 8.1
2018-Jun-20 05:00N 48°35' W 122°45'4 7.6
2018-Jun-20 04:30N 48°39' W 122°43'4 7.5
2018-Jun-20 03:59N 48°43' W 122°45'6 3.9
2018-Jun-20 02:21N 48°49' W 122°43'0 0.5
2018-Jun-20 01:59N 48°49' W 122°43'0 0.0
2018-Jun-19 17:14N 48°49' W 122°43'0 0.1
2018-Jun-19 16:50N 48°49' W 122°43'0 0.0
2018-Jun-19 14:47N 48°49' W 122°43'0 0.0
2018-Jun-19 08:31N 48°49' W 122°43'0 0.0
2018-Jun-19 08:30N 48°49' W 122°43'0 0.3
2018-Jun-19 07:11N 48°49' W 122°44'1 4.0
2018-Jun-19 07:00N 48°48' W 122°44'4 8.5
2018-Jun-19 06:30N 48°44' W 122°45'510.0
2018-Jun-19 06:00N 48°39' W 122°44'510.9
2018-Jun-19 05:30N 48°34' W 122°45'611.9
2018-Jun-19 05:00N 48°28' W 122°45'713.3
2018-Jun-19 04:29N 48°22' W 122°52'814.0
2018-Jun-19 03:57N 48°18' W 123°01'4 0.2
2018-Jun-18 06:07N 48°21' W 122°57'110.2
2018-Jun-18 06:00N 48°21' W 122°56'5 9.8
2018-Jun-18 05:30N 48°24' W 122°50'5 9.5
2018-Jun-18 05:01N 48°28' W 122°45'4 8.1
2018-Jun-18 04:31N 48°32' W 122°45'4 7.2
2018-Jun-18 04:00N 48°35' W 122°45'3 5.6
2018-Jun-18 03:31N 48°38' W 122°44'3 6.3
2018-Jun-18 03:00N 48°41' W 122°44'6 7.9
2018-Jun-18 02:16N 48°47' W 122°45'3 0.1
2018-Jun-17 00:50N 48°44' W 122°44'2 6.2
2018-Jun-17 00:27N 48°42' W 122°43'4 9.2
2018-Jun-17 00:01N 48°39' W 122°38'4 8.0
2018-Jun-16 23:30N 48°41' W 122°33'1 0.1
2018-Jun-16 05:54N 48°42' W 122°33'410.3
2018-Jun-16 05:30N 48°38' W 122°34'5 9.9
2018-Jun-16 05:00N 48°33' W 122°34'3 5.5
2018-Jun-16 04:30N 48°30' W 122°34'0 0.3
2018-Jun-16 04:00N 48°31' W 122°35'1 2.8
2018-Jun-16 03:30N 48°32' W 122°36'3 7.0
2018-Jun-16 03:00N 48°31' W 122°41'3 6.2
2018-Jun-16 02:30N 48°29' W 122°45'4 7.4
2018-Jun-16 01:55N 48°25' W 122°47'511.3
2018-Jun-16 01:30N 48°22' W 122°53'813.5
2018-Jun-16 00:55N 48°18' W 123°03'27 3.5
2018-Jun-15 17:07N 47°58' W 122°34'213.8
2018-Jun-15 17:00N 47°57' W 122°32'612.0
2018-Jun-15 16:30N 47°52' W 122°28'611.4
2018-Jun-15 16:00N 47°47' W 122°26'611.1
2018-Jun-15 15:30N 47°41' W 122°27'4 8.6
2018-Jun-15 15:00N 47°38' W 122°23'0 0.6
2018-Jun-15 14:31N 47°38' W 122°23'0 0.0
2018-Jun-15 14:00N 47°38' W 122°23'0 0.0
2018-Jun-15 13:31N 47°38' W 122°23'1 2.8
2018-Jun-15 13:00N 47°37' W 122°22'2 3.7
2018-Jun-15 12:31N 47°35' W 122°21'0 0.5
2018-Jun-15 12:00N 47°35' W 122°21'3 6.0
2018-Jun-15 11:30N 47°38' W 122°23'0 0.0
2018-Jun-15 10:59N 47°38' W 122°23'0 0.0
2018-Jun-15 10:29N 47°38' W 122°23'0 0.0
2018-Jun-15 09:59N 47°38' W 122°23'0 0.0
2018-Jun-15 09:29N 47°38' W 122°23'0 0.0
2018-Jun-15 08:59N 47°38' W 122°23'0 0.0
2018-Jun-15 08:29N 47°38' W 122°23'0 0.0
2018-Jun-15 07:59N 47°38' W 122°23'0 0.0
2018-Jun-15 07:29N 47°38' W 122°23'0 0.0
2018-Jun-15 06:59N 47°38' W 122°23'0 0.0
2018-Jun-15 06:29N 47°38' W 122°23'0 0.0
2018-Jun-15 05:59N 47°38' W 122°23'0 0.0
2018-Jun-15 05:29N 47°38' W 122°23'0 0.0
2018-Jun-15 04:59N 47°38' W 122°23'0 0.0
2018-Jun-15 04:29N 47°38' W 122°23'0 0.0
2018-Jun-15 04:00N 47°38' W 122°23'4 7.3
2018-Jun-15 03:30N 47°34' W 122°21'2 3.3
2018-Jun-15 03:01N 47°33' W 122°20'0 0.3
2018-Jun-15 02:30N 47°33' W 122°20'1 1.8
2018-Jun-15 02:00N 47°34' W 122°21'1 1.2
2018-Jun-15 01:30N 47°34' W 122°21'1 1.8
2018-Jun-15 01:01N 47°35' W 122°22'1 1.3
2018-Jun-15 00:30N 47°36' W 122°21'0 0.3
2018-Jun-15 00:00N 47°36' W 122°21'1 2.3
2018-Jun-14 23:30N 47°35' W 122°22'1 1.5
2018-Jun-14 23:00N 47°35' W 122°21'0 0.0
2018-Jun-14 22:30N 47°35' W 122°21'0 0.0
2018-Jun-14 22:00N 47°35' W 122°21'0 0.0
2018-Jun-14 21:30N 47°35' W 122°21'0 0.0
2018-Jun-14 21:00N 47°35' W 122°21'0 0.0
2018-Jun-14 20:30N 47°35' W 122°21'0 0.0
2018-Jun-14 20:00N 47°35' W 122°21'0 0.0
2018-Jun-14 19:30N 47°35' W 122°21'3 5.3
2018-Jun-14 19:00N 47°38' W 122°23'0 0.3
2018-Jun-14 18:30N 47°38' W 122°23'0 0.0
2018-Jun-14 18:00N 47°38' W 122°23'0 0.0
2018-Jun-14 17:30N 47°38' W 122°23'0 0.0
2018-Jun-14 17:00N 47°38' W 122°23'0 0.0
2018-Jun-14 16:30N 47°38' W 122°23'0 0.0
2018-Jun-14 16:00N 47°38' W 122°23'0 0.0
2018-Jun-14 15:30N 47°38' W 122°23'0 0.0
2018-Jun-14 15:00N 47°38' W 122°23'0 0.0
2018-Jun-14 14:30N 47°38' W 122°23'0 0.0
2018-Jun-14 14:00N 47°38' W 122°23'0 0.0
2018-Jun-14 13:30N 47°38' W 122°23'0 1.0
2018-Jun-14 13:00N 47°37' W 122°23'3 5.7
2018-Jun-14 12:30N 47°35' W 122°21'1 1.2
2018-Jun-14 12:01N 47°36' W 122°21'0 0.6
2018-Jun-14 11:30N 47°36' W 122°21'0 0.7
2018-Jun-14 11:00N 47°36' W 122°21'0 0.1
2018-Jun-14 10:30N 47°36' W 122°21'0 0.9
2018-Jun-14 10:00N 47°36' W 122°21'1 1.2
2018-Jun-14 09:30N 47°36' W 122°22'2 3.9
2018-Jun-14 09:00N 47°38' W 122°23'0 0.0
2018-Jun-14 08:30N 47°38' W 122°23'0 0.0
2018-Jun-14 08:00N 47°38' W 122°23'0 0.0
2018-Jun-14 07:30N 47°38' W 122°23'0 0.0
2018-Jun-14 07:00N 47°38' W 122°23'0 0.0
2018-Jun-14 06:30N 47°38' W 122°23'0 0.7
2018-Jun-14 06:01N 47°38' W 122°23'5 9.4
2018-Jun-14 05:30N 47°41' W 122°28'510.9
2018-Jun-14 05:00N 47°46' W 122°27'611.3
2018-Jun-14 04:30N 47°52' W 122°29'510.0
2018-Jun-14 04:00N 47°56' W 122°33'5 9.9
2018-Jun-14 03:28N 48°00' W 122°38'2310.1
2018-Jun-14 01:10N 48°23' W 122°45'210.9
2018-Jun-14 01:00N 48°25' W 122°45'510.4
2018-Jun-14 00:30N 48°30' W 122°43'4 8.4
2018-Jun-14 00:00N 48°31' W 122°37'2 3.7
2018-Jun-13 23:30N 48°31' W 122°35'0 0.6
2018-Jun-13 23:00N 48°31' W 122°35'0 0.9
2018-Jun-13 22:30N 48°31' W 122°36'0 0.0
2018-Jun-13 22:00N 48°31' W 122°36'0 0.0
2018-Jun-13 21:30N 48°31' W 122°36'0 0.1
2018-Jun-13 21:00N 48°31' W 122°36'1 1.3
2018-Jun-13 20:30N 48°31' W 122°35'1 1.2
2018-Jun-13 20:00N 48°31' W 122°36'0 0.0
2018-Jun-13 19:30N 48°31' W 122°36'0 0.0
2018-Jun-13 19:00N 48°31' W 122°36'0 0.0
2018-Jun-13 18:30N 48°31' W 122°36'0 0.0
2018-Jun-13 18:00N 48°31' W 122°36'0 0.0
2018-Jun-13 17:29N 48°31' W 122°36'0 0.0
2018-Jun-13 17:00N 48°31' W 122°36'0 0.0
2018-Jun-13 16:30N 48°31' W 122°36'0 0.1
2018-Jun-13 16:00N 48°31' W 122°36'0 0.0
2018-Jun-13 15:31N 48°31' W 122°36'0 0.1
2018-Jun-13 15:00N 48°31' W 122°36'0 0.1
2018-Jun-13 14:30N 48°31' W 122°36'0 0.0
2018-Jun-13 14:00N 48°31' W 122°36'0 0.0
2018-Jun-13 13:30N 48°31' W 122°36'0 0.1
2018-Jun-13 13:00N 48°31' W 122°36'0 0.0
2018-Jun-13 12:30N 48°31' W 122°36'0 0.0
2018-Jun-13 12:00N 48°31' W 122°36'0 0.0
2018-Jun-13 11:30N 48°31' W 122°36'0 0.0
2018-Jun-13 11:00N 48°31' W 122°36'0 0.0
2018-Jun-13 10:30N 48°31' W 122°36'0 0.0
2018-Jun-13 10:00N 48°31' W 122°36'0 0.0
2018-Jun-13 09:30N 48°31' W 122°36'0 0.0
2018-Jun-13 09:00N 48°31' W 122°36'0 0.0
2018-Jun-13 08:30N 48°31' W 122°36'0 0.0
2018-Jun-13 07:59N 48°31' W 122°36'0 0.0
2018-Jun-13 07:30N 48°31' W 122°36'0 0.0
2018-Jun-13 07:00N 48°31' W 122°36'0 0.0
2018-Jun-13 06:30N 48°31' W 122°36'0 0.0
2018-Jun-13 06:00N 48°31' W 122°36'0 0.0
2018-Jun-13 05:29N 48°31' W 122°36'0 0.0
2018-Jun-13 05:00N 48°31' W 122°36'4 7.4
2018-Jun-13 04:30N 48°35' W 122°36'510.3
2018-Jun-13 04:00N 48°39' W 122°39'510.4
2018-Jun-13 03:30N 48°43' W 122°44'8 3.5
2018-Jun-13 01:20N 48°51' W 122°46'4 9.3
2018-Jun-13 00:57N 48°47' W 122°45'5 8.9
2018-Jun-13 00:25N 48°43' W 122°43'4 9.7
2018-Jun-13 00:00N 48°40' W 122°40'4 7.9
2018-Jun-12 23:30N 48°39' W 122°34'510.2
2018-Jun-12 23:00N 48°44' W 122°31'1 1.0
2018-Jun-12 22:11N 48°45' W 122°30'0 0.0
2018-Jun-12 21:53N 48°45' W 122°30'0 0.0
2018-Jun-12 17:29N 48°45' W 122°30'0 0.0
2018-Jun-12 15:47N 48°45' W 122°30'0 0.0
2018-Jun-12 14:24N 48°45' W 122°30'0 0.0
2018-Jun-12 13:53N 48°45' W 122°30'0 0.0
2018-Jun-12 13:27N 48°45' W 122°30'  

Dump ship's entire track history